Ana Sayfa
METAR-TAF:

METAR-TAF

Havaalanları :

Saginaw, Michigan, Amerika Birleşik Devletleri

Enlem: 43-31-58N, Boylam: 084-04-46W, yükseklik: 204 m

Güncel hava durumu gözlemi

Rapor saat 14:53 UTC de 59 dakika önce yapıldı.
Rüzgar kuzeydoğudan 7 kt
Sıcaklık -1°C
Nem 74%
Basınç 1024 hPa
Görüş mesafesi: 16.1 km
2400 ft yükseklikte çok bulutlu

METAR: KMBS 291453Z 04007KT 10SM OVC024 M01/M05 A3024 RMK AO2 SLP248 T10111050 51015

Saat: 10:52 (15:52 UTC)

Tahmin

Rapor saat 14:39 UTC de 1 saat ve 13 dakika önce yapıldı.
Ayın 29'si saat 15 UTC'den ayın 30'si saat 12 UTC'ye kadar geçerli Tahmin
Rüzgar doğu/kuzeydoğudan 4 kt
Görüş mesafesi: 10 km
2200 ft yükseklikte parçalı çok bulutlu
3500 ft yükseklikte çok bulutlu

TAF: KMBS 291439Z 2915/3012 06004KT P6SM BKN022 OVC035

4.000'den fazla havaalanı için hava durumu gözlemleri ve tahminleri (METAR ve TAF raporları).

Kullanılabilir istasyonlar harita üzerinde sarı ve kırmızı noktalarla gösterilir.

İstasyonun adını görmek için fareyi noktanın üzerinde gezdirin.

Sonrasında hava gözlem ve tahminlerini görmek için tıklayın.

Haritayı değiştirmek için: yaklaştırmak için siyah artı işaretli yeşil düğmeye ve uzaklaştırmak için de eksi işaretli düğmeye hızla tıklayın; bitişik haritalar için yeşil okları kullanın.


METAR-TAF: